Bloomville, Wisconsin
Current Conditions -  °F | °C
As of 8:35 PM on Saturday 22 Nov 2014 (Local Time) from KRRL Reporting Station
Haze Haze  
Wind Chill: 31°   Ceiling: 100
Heat Index: 35°   Visibility: 1.7mi
Dew Point: 35°   Wind: 5mph
Humidity: 100%   Direction: 180°S
Pressure: 29.71"   Gusts: NA
Location:  45.3595°N, 89.45°W
Report Text: KRRL 230235Z AUTO 18004KT 1 3/4SM BR OVC001 02/02 A2971 RMK AO2 T00160016
Loading
Personal Weather Stations






























Interactive Weather Map New forecast layout! Learn more

10-Day Weather Forecast

Advertisements
Track Severe Weather on mobile